Time;durP1;ratioP1;P1;durP2;ratioP2;P2;SDS_P1;SDS_P2;PMS_P1;PMS_P2;Temp;Humidity;BMP_temperature;BMP_pressure;BME280_temperature;BME280_humidity;BME280_pressure;Samples;Min_cycle;Max_cycle;Signal;HPM_P1;HPM_P2
2021/01/23 00:02:36;;;;;;;3.67;3.38;;;2.80;99.90;;;;;;5012789;28;20300;-84
2021/01/23 00:05:03;;;;;;;2.92;2.72;;;2.70;99.90;;;;;;5009033;28;20217;-85
2021/01/23 00:07:42;;;;;;;3.53;3.22;;;2.70;99.90;;;;;;5013024;28;20203;-85
2021/01/23 00:10:09;;;;;;;3.10;2.90;;;2.70;99.90;;;;;;5011051;28;20667;-84
2021/01/23 00:12:35;;;;;;;3.90;3.50;;;2.70;99.90;;;;;;5013224;28;20670;-84
2021/01/23 00:15:02;;;;;;;3.20;3.00;;;2.60;99.90;;;;;;5012686;28;20209;-85
2021/01/23 00:17:28;;;;;;;4.22;3.78;;;2.60;99.90;;;;;;5012969;28;20199;-86
2021/01/23 00:19:54;;;;;;;3.42;3.13;;;2.70;99.90;;;;;;5013010;28;20211;-86
2021/01/23 00:22:21;;;;;;;4.20;3.65;;;2.60;99.90;;;;;;5010406;28;20595;-85
2021/01/23 00:24:48;;;;;;;3.83;3.53;;;2.60;99.90;;;;;;5012989;28;20193;-84
2021/01/23 00:27:17;;;;;;;3.55;3.25;;;2.60;99.90;;;;;;5012877;28;20193;-84
2021/01/23 00:29:43;;;;;;;4.22;3.78;;;2.60;99.90;;;;;;5013020;28;20209;-85
2021/01/23 00:32:14;;;;;;;4.05;3.65;;;2.70;99.90;;;;;;5012406;28;20664;-85
2021/01/23 00:34:44;;;;;;;3.65;3.35;;;2.70;99.90;;;;;;5013113;28;20239;-84
2021/01/23 00:37:10;;;;;;;4.85;4.20;;;2.80;99.90;;;;;;5010496;28;20290;-84
2021/01/23 00:39:37;;;;;;;4.75;4.22;;;2.90;99.90;;;;;;5012865;28;20211;-85
2021/01/23 00:42:05;;;;;;;4.68;4.28;;;2.90;99.90;;;;;;5011162;28;20201;-84
2021/01/23 00:44:31;;;;;;;5.72;5.13;;;2.90;99.90;;;;;;5012622;28;20201;-84
2021/01/23 00:46:57;;;;;;;5.82;5.32;;;3.00;99.90;;;;;;5012587;28;20837;-84
2021/01/23 00:49:24;;;;;;;6.00;5.50;;;3.00;99.90;;;;;;5012916;28;20207;-84
2021/01/23 00:51:50;;;;;;;6.57;5.97;;;3.10;99.90;;;;;;5012318;28;20455;-84
2021/01/23 00:54:16;;;;;;;5.97;4.95;;;3.10;99.90;;;;;;5010095;28;20193;-83
2021/01/23 00:56:43;;;;;;;5.95;4.97;;;3.10;99.90;;;;;;5004994;28;20235;-85
2021/01/23 00:59:12;;;;;;;7.27;5.60;;;3.20;99.90;;;;;;5012768;28;20282;-85
2021/01/23 01:01:39;;;;;;;6.68;5.97;;;3.20;99.90;;;;;;5012894;28;20467;-84
2021/01/23 01:04:05;;;;;;;6.00;5.40;;;3.20;99.90;;;;;;5012708;28;20260;-84
2021/01/23 01:06:32;;;;;;;7.33;6.43;;;3.20;99.90;;;;;;5012591;28;20248;-85
2021/01/23 01:08:58;;;;;;;6.28;5.68;;;3.30;99.90;;;;;;5012383;28;20513;-85
2021/01/23 01:11:25;;;;;;;6.15;5.55;;;3.30;99.90;;;;;;4992856;28;20279;-85
2021/01/23 01:13:51;;;;;;;5.82;5.22;;;3.20;99.90;;;;;;4993212;28;20741;-85
2021/01/23 01:16:18;;;;;;;5.50;4.75;;;3.30;99.90;;;;;;4992831;28;20719;-85
2021/01/23 01:18:47;;;;;;;5.35;4.82;;;3.30;99.90;;;;;;4992801;28;20697;-85
2021/01/23 01:21:14;;;;;;;6.55;4.20;;;3.30;99.90;;;;;;4992973;28;20211;-85
2021/01/23 01:23:42;;;;;;;5.90;5.07;;;3.30;99.90;;;;;;4996670;28;20279;-85
2021/01/23 01:26:09;;;;;;;5.30;4.80;;;3.30;99.90;;;;;;5012137;28;20227;-84
2021/01/23 01:28:35;;;;;;;5.28;4.78;;;3.40;99.90;;;;;;5011933;28;20454;-84
2021/01/23 01:31:03;;;;;;;7.63;6.10;;;3.30;99.90;;;;;;5012510;28;20418;-84
2021/01/23 01:33:31;;;;;;;8.57;7.10;;;3.40;99.90;;;;;;5012549;28;20213;-83
2021/01/23 01:35:58;;;;;;;8.57;7.63;;;3.40;99.90;;;;;;5012569;28;20225;-85
2021/01/23 01:38:24;;;;;;;10.60;8.20;;;3.40;99.90;;;;;;5012399;28;20490;-85
2021/01/23 01:40:51;;;;;;;8.97;7.87;;;3.40;99.90;;;;;;5011897;28;20461;-84
2021/01/23 01:43:18;;;;;;;9.43;8.45;;;3.40;99.90;;;;;;5012020;28;20481;-85
2021/01/23 01:45:45;;;;;;;9.40;8.50;;;3.40;99.90;;;;;;5012426;28;20234;-84
2021/01/23 01:48:12;;;;;;;10.57;9.53;;;3.40;99.90;;;;;;5016859;28;20211;-85
2021/01/23 01:50:40;;;;;;;10.60;9.50;;;3.40;99.90;;;;;;5017362;28;20806;-85
2021/01/23 01:53:07;;;;;;;12.60;10.13;;;3.30;99.90;;;;;;5012058;28;20202;-85
2021/01/23 01:55:34;;;;;;;10.80;9.70;;;3.40;99.90;;;;;;5011575;28;20515;-83
2021/01/23 01:58:01;;;;;;;9.57;8.68;;;3.40;99.90;;;;;;5011968;28;20581;-84
2021/01/23 02:00:27;;;;;;;11.45;9.73;;;3.40;99.90;;;;;;5011688;28;20218;-85
2021/01/23 02:03:15;;;;;;;10.38;8.88;;;3.40;99.90;;;;;;5011809;28;20314;-84
2021/01/23 02:05:49;;;;;;;9.98;9.00;;;3.40;99.90;;;;;;5011917;28;20231;-85
2021/01/23 02:08:27;;;;;;;9.97;8.90;;;3.40;99.90;;;;;;5012094;28;20280;-85
2021/01/23 02:11:03;;;;;;;10.10;8.90;;;3.30;99.90;;;;;;5012040;28;20819;-84
2021/01/23 02:13:32;;;;;;;9.23;8.20;;;3.40;99.90;;;;;;5012043;28;21050;-85
2021/01/23 02:16:04;;;;;;;8.93;8.00;;;3.40;99.90;;;;;;5011172;28;20537;-84
2021/01/23 02:18:38;;;;;;;7.70;6.90;;;3.50;99.90;;;;;;5011693;28;20960;-85
2021/01/23 02:21:50;;;;;;;9.13;7.37;;;3.50;99.90;;;;;;5011778;28;20202;-84
2021/01/23 02:24:24;;;;;;;5.97;5.47;;;3.40;99.90;;;;;;5011604;28;20488;-85
2021/01/23 02:27:18;;;;;;;5.90;5.30;;;3.50;99.90;;;;;;5011862;28;20478;-85
2021/01/23 02:30:02;;;;;;;6.07;5.25;;;3.50;99.90;;;;;;5011915;28;20455;-85
2021/01/23 02:32:33;;;;;;;5.15;4.75;;;3.50;99.90;;;;;;5011397;28;20230;-85
2021/01/23 02:35:01;;;;;;;4.72;4.32;;;3.50;99.90;;;;;;5011215;28;20715;-84
2021/01/23 02:37:30;;;;;;;5.93;5.18;;;3.50;99.90;;;;;;5011844;28;20296;-84
2021/01/23 02:39:58;;;;;;;6.03;5.45;;;3.50;99.90;;;;;;5014711;28;20201;-84
2021/01/23 02:42:24;;;;;;;5.57;5.07;;;3.50;99.90;;;;;;5015426;28;20230;-84
2021/01/23 02:44:50;;;;;;;5.03;4.60;;;3.50;99.90;;;;;;5015475;28;20260;-85
2021/01/23 02:47:16;;;;;;;5.27;4.77;;;3.50;99.90;;;;;;5015572;28;20205;-85
2021/01/23 02:49:44;;;;;;;6.20;4.37;;;3.50;99.90;;;;;;5015399;28;20455;-85
2021/01/23 02:52:20;;;;;;;3.97;3.67;;;3.50;99.90;;;;;;5014496;28;20453;-85
2021/01/23 02:54:51;;;;;;;4.18;3.63;;;3.50;99.90;;;;;;5015279;28;20460;-85
2021/01/23 02:57:20;;;;;;;6.32;4.10;;;3.50;99.90;;;;;;5015565;28;20562;-85
2021/01/23 02:59:50;;;;;;;3.80;3.50;;;3.50;99.90;;;;;;5014842;28;20739;-84
2021/01/23 03:02:19;;;;;;;4.27;3.97;;;3.50;99.90;;;;;;5014934;28;20449;-84
2021/01/23 03:04:47;;;;;;;4.10;3.65;;;3.50;99.90;;;;;;5014966;28;20460;-84
2021/01/23 03:07:14;;;;;;;3.50;3.20;;;3.50;99.90;;;;;;5015156;28;20279;-85
2021/01/23 03:09:40;;;;;;;3.20;3.00;;;3.50;99.90;;;;;;5014952;28;21019;-85
2021/01/23 03:12:08;;;;;;;4.28;3.60;;;3.50;99.90;;;;;;5014870;28;20453;-85
2021/01/23 03:14:35;;;;;;;3.63;3.33;;;3.50;99.90;;;;;;5014648;28;20266;-85
2021/01/23 03:17:02;;;;;;;5.17;3.73;;;3.50;99.90;;;;;;5015123;28;20466;-85
2021/01/23 03:19:28;;;;;;;3.37;3.07;;;3.50;99.90;;;;;;5014500;28;20529;-85
2021/01/23 03:21:55;;;;;;;3.13;2.83;;;3.50;99.90;;;;;;5014496;28;20455;-85
2021/01/23 03:24:22;;;;;;;3.53;3.22;;;3.50;99.90;;;;;;5014340;28;20454;-85
2021/01/23 03:26:49;;;;;;;3.13;2.83;;;3.60;99.90;;;;;;5014374;28;20229;-84
2021/01/23 03:29:16;;;;;;;5.30;3.00;;;3.60;99.90;;;;;;5014265;28;20509;-84
2021/01/23 03:31:43;;;;;;;3.30;3.00;;;3.60;99.90;;;;;;5014064;28;20452;-84
2021/01/23 03:34:09;;;;;;;4.50;2.90;;;3.50;99.90;;;;;;5014297;28;20443;-85
2021/01/23 03:36:36;;;;;;;2.90;2.70;;;3.60;99.90;;;;;;5013940;28;20996;-85
2021/01/23 03:39:04;;;;;;;3.80;3.50;;;3.50;99.90;;;;;;5014023;28;20491;-84
2021/01/23 03:41:30;;;;;;;3.67;3.20;;;3.60;99.90;;;;;;5013919;28;20201;-84
2021/01/23 03:43:56;;;;;;;3.30;3.00;;;3.60;99.90;;;;;;5013584;28;20706;-84
2021/01/23 03:46:23;;;;;;;3.20;2.90;;;3.50;99.90;;;;;;5013851;28;20250;-84
2021/01/23 03:48:50;;;;;;;4.00;3.70;;;3.50;99.90;;;;;;5014171;28;20529;-84
2021/01/23 03:51:16;;;;;;;4.27;3.87;;;3.60;99.90;;;;;;5013182;28;20551;-84
2021/01/23 03:53:43;;;;;;;3.20;2.90;;;3.60;99.90;;;;;;5014504;28;20456;-84
2021/01/23 03:56:10;;;;;;;3.47;3.17;;;3.60;99.90;;;;;;5014542;28;20457;-85
2021/01/23 03:58:37;;;;;;;4.30;3.47;;;3.60;99.90;;;;;;5014798;28;20461;-84
2021/01/23 04:01:04;;;;;;;3.73;3.40;;;3.60;99.90;;;;;;5017976;28;20448;-84
2021/01/23 04:03:30;;;;;;;3.60;3.30;;;3.60;99.90;;;;;;5014948;28;20486;-84
2021/01/23 04:05:56;;;;;;;6.50;4.53;;;3.60;99.90;;;;;;5014110;28;20503;-84
2021/01/23 04:08:23;;;;;;;4.17;3.77;;;3.60;99.90;;;;;;5014189;28;20454;-84
2021/01/23 04:10:52;;;;;;;4.03;3.63;;;3.60;99.90;;;;;;5014224;28;20448;-85
2021/01/23 04:13:21;;;;;;;3.53;2.90;;;3.60;99.90;;;;;;5013818;28;20451;-85
2021/01/23 04:15:55;;;;;;;4.80;4.30;;;3.60;99.90;;;;;;5013517;28;20472;-85
2021/01/23 04:18:22;;;;;;;6.50;4.20;;;3.70;99.90;;;;;;5013820;28;20527;-85
2021/01/23 04:20:58;;;;;;;3.93;3.50;;;3.60;99.90;;;;;;5013782;28;20945;-85
2021/01/23 04:23:25;;;;;;;5.67;4.57;;;3.60;99.90;;;;;;5013605;28;20531;-85
2021/01/23 04:25:51;;;;;;;4.60;3.80;;;3.70;99.90;;;;;;5013525;28;21054;-85
2021/01/23 04:28:21;;;;;;;4.40;3.80;;;3.60;99.90;;;;;;5013419;28;20529;-85
2021/01/23 04:30:50;;;;;;;4.90;3.38;;;3.70;99.90;;;;;;5013174;28;20443;-85
2021/01/23 04:33:17;;;;;;;5.40;3.90;;;3.70;99.90;;;;;;5013308;28;20293;-85
2021/01/23 04:35:43;;;;;;;5.07;4.60;;;3.70;99.90;;;;;;5013258;28;20459;-85
2021/01/23 04:38:09;;;;;;;4.50;3.97;;;3.70;99.90;;;;;;5013268;28;20449;-84
2021/01/23 04:40:38;;;;;;;4.60;4.20;;;3.70;99.90;;;;;;5013468;28;20452;-84
2021/01/23 04:43:04;;;;;;;4.40;3.70;;;3.70;99.90;;;;;;5013101;28;20485;-84
2021/01/23 04:45:39;;;;;;;4.80;3.53;;;3.70;99.90;;;;;;5013048;28;20465;-84
2021/01/23 04:48:06;;;;;;;3.93;3.50;;;3.70;99.90;;;;;;5012901;28;20453;-84
2021/01/23 04:50:32;;;;;;;4.20;3.30;;;3.70;99.90;;;;;;5012992;28;20526;-84
2021/01/23 04:52:58;;;;;;;4.53;3.60;;;3.70;99.90;;;;;;5013125;28;20445;-85
2021/01/23 04:55:25;;;;;;;3.80;3.33;;;3.60;99.90;;;;;;5012860;28;20469;-85
2021/01/23 04:57:51;;;;;;;6.13;4.10;;;3.60;99.90;;;;;;5013180;28;20464;-85
2021/01/23 05:00:18;;;;;;;5.03;4.37;;;3.60;99.90;;;;;;5013026;28;20921;-84
2021/01/23 05:03:00;;;;;;;3.60;3.27;;;3.50;99.90;;;;;;5012934;28;20859;-84
2021/01/23 05:05:27;;;;;;;4.77;4.13;;;3.50;99.90;;;;;;5012341;28;20474;-84
2021/01/23 05:07:53;;;;;;;4.23;3.70;;;3.50;99.90;;;;;;5011169;28;20464;-84
2021/01/23 05:10:23;;;;;;;3.60;3.30;;;3.50;99.90;;;;;;5012660;28;20453;-84
2021/01/23 05:12:50;;;;;;;4.60;3.80;;;3.50;99.90;;;;;;5012619;28;20528;-84
2021/01/23 05:15:21;;;;;;;3.70;3.27;;;3.40;99.90;;;;;;5012535;28;20473;-84
2021/01/23 05:17:50;;;;;;;3.90;3.33;;;3.40;99.90;;;;;;5012292;28;20453;-85
2021/01/23 05:20:30;;;;;;;6.37;3.30;;;3.40;99.90;;;;;;5012269;28;20440;-84
2021/01/23 05:22:56;;;;;;;3.87;3.30;;;3.40;99.90;;;;;;4992967;28;20512;-84
2021/01/23 05:25:26;;;;;;;5.10;2.90;;;3.40;99.90;;;;;;4992765;28;20483;-84
2021/01/23 05:27:52;;;;;;;4.27;3.87;;;3.40;99.90;;;;;;4993016;28;20455;-84
2021/01/23 05:30:19;;;;;;;5.17;3.23;;;3.40;99.90;;;;;;4993072;28;21024;-84
2021/01/23 05:32:45;;;;;;;4.17;3.30;;;3.40;99.90;;;;;;4992780;28;20827;-85
2021/01/23 05:35:16;;;;;;;3.10;2.80;;;3.40;99.90;;;;;;4992601;28;20462;-85
2021/01/23 05:37:42;;;;;;;4.17;2.70;;;3.40;99.90;;;;;;5011429;28;20460;-85
2021/01/23 05:40:09;;;;;;;3.33;2.97;;;3.50;99.90;;;;;;5012174;28;20825;-85
2021/01/23 05:42:43;;;;;;;3.87;2.63;;;3.50;99.90;;;;;;5011984;28;20475;-85
2021/01/23 05:45:11;;;;;;;3.00;2.70;;;3.50;99.90;;;;;;5012202;28;20485;-85
2021/01/23 05:47:38;;;;;;;6.47;3.57;;;3.40;99.90;;;;;;5012182;28;20464;-85
2021/01/23 05:50:07;;;;;;;6.60;2.80;;;3.40;99.90;;;;;;5011982;28;20453;-85
2021/01/23 05:52:35;;;;;;;3.33;3.03;;;3.40;99.90;;;;;;5011875;28;20461;-85
2021/01/23 05:55:01;;;;;;;3.47;2.87;;;3.40;99.90;;;;;;5011880;28;20531;-85
2021/01/23 05:57:28;;;;;;;3.20;2.40;;;3.50;99.90;;;;;;5011821;28;20503;-85
2021/01/23 05:59:55;;;;;;;3.10;2.80;;;3.40;99.90;;;;;;5011978;28;20517;-85
2021/01/23 06:02:22;;;;;;;3.20;2.90;;;3.40;99.90;;;;;;5011698;28;20445;-85
2021/01/23 06:04:50;;;;;;;2.77;2.57;;;3.50;99.90;;;;;;5011919;28;20437;-85
2021/01/23 06:07:45;;;;;;;3.23;2.90;;;3.40;99.90;;;;;;5011417;28;20886;-85
2021/01/23 06:10:41;;;;;;;3.40;3.10;;;3.40;99.90;;;;;;5011411;28;20451;-85
2021/01/23 06:13:36;;;;;;;3.30;3.00;;;3.40;99.90;;;;;;5011419;28;20457;-85
2021/01/23 06:16:03;;;;;;;3.78;3.33;;;3.40;99.90;;;;;;5011865;28;20513;-85
2021/01/23 06:18:31;;;;;;;3.77;3.10;;;3.50;99.90;;;;;;5011664;28;20701;-85
2021/01/23 06:20:58;;;;;;;3.83;3.13;;;3.40;99.90;;;;;;5012122;28;20480;-84
2021/01/23 06:23:47;;;;;;;3.50;3.20;;;3.40;99.90;;;;;;5014681;28;20511;-84
2021/01/23 06:26:14;;;;;;;3.57;2.60;;;3.40;99.90;;;;;;5011613;28;20492;-84
2021/01/23 06:28:54;;;;;;;3.40;3.00;;;3.40;99.90;;;;;;5011403;28;20522;-84
2021/01/23 06:31:31;;;;;;;3.38;3.08;;;3.30;99.90;;;;;;5011448;28;20527;-84
2021/01/23 06:33:58;;;;;;;3.70;2.67;;;3.40;99.90;;;;;;5011540;28;20209;-85
2021/01/23 06:36:25;;;;;;;3.20;2.90;;;3.30;99.90;;;;;;5011168;28;20473;-84
2021/01/23 06:39:08;;;;;;;3.50;3.20;;;3.30;99.90;;;;;;5011552;28;20451;-85
2021/01/23 06:41:35;;;;;;;3.87;3.10;;;3.30;99.90;;;;;;5011433;28;20972;-84
2021/01/23 06:44:12;;;;;;;5.23;4.73;;;3.30;99.90;;;;;;5011461;28;20493;-84
2021/01/23 06:46:40;;;;;;;8.53;5.67;;;3.30;99.90;;;;;;5011385;28;20459;-84
2021/01/23 06:49:07;;;;;;;3.50;3.20;;;3.20;99.90;;;;;;5011400;28;20453;-86
2021/01/23 06:51:34;;;;;;;3.60;3.30;;;3.20;99.90;;;;;;4991928;28;20549;-85
2021/01/23 06:54:11;;;;;;;6.20;3.73;;;3.30;99.90;;;;;;4991788;28;20451;-85
2021/01/23 06:56:38;;;;;;;4.73;4.20;;;3.20;99.90;;;;;;4991736;28;20586;-86
2021/01/23 06:59:04;;;;;;;7.10;3.60;;;3.20;99.90;;;;;;5004768;28;20461;-86
2021/01/23 07:01:30;;;;;;;3.77;3.37;;;3.20;99.90;;;;;;5010089;28;20454;-86
2021/01/23 07:03:57;;;;;;;4.20;3.80;;;3.20;99.90;;;;;;5011172;28;20516;-86
2021/01/23 07:06:29;;;;;;;3.93;3.50;;;3.20;99.90;;;;;;5011274;28;20461;-85
2021/01/23 07:08:56;;;;;;;5.43;3.80;;;3.30;99.90;;;;;;5011519;28;20480;-86
2021/01/23 07:11:23;;;;;;;4.77;4.27;;;3.30;99.90;;;;;;5011262;28;20452;-86
2021/01/23 07:13:58;;;;;;;4.70;3.80;;;3.30;99.90;;;;;;5011536;28;20449;-86
2021/01/23 07:16:24;;;;;;;4.20;3.85;;;3.30;99.90;;;;;;5010953;28;20459;-85
2021/01/23 07:18:52;;;;;;;5.00;3.40;;;3.30;99.90;;;;;;5011021;28;20229;-86
2021/01/23 07:21:19;;;;;;;4.40;4.00;;;3.30;99.90;;;;;;5010965;28;20945;-86
2021/01/23 07:23:47;;;;;;;3.37;3.10;;;3.20;99.90;;;;;;5010897;28;20491;-85
2021/01/23 07:26:14;;;;;;;3.43;3.13;;;3.20;99.90;;;;;;5012690;28;20862;-84
2021/01/23 07:28:44;;;;;;;4.80;4.37;;;3.30;99.90;;;;;;5014637;28;20442;-85
2021/01/23 07:31:17;;;;;;;5.90;3.50;;;3.30;99.90;;;;;;5014480;28;20446;-85
2021/01/23 07:33:44;;;;;;;5.97;3.07;;;3.30;99.90;;;;;;5014918;28;20207;-84
2021/01/23 07:36:11;;;;;;;6.30;3.40;;;3.30;99.90;;;;;;5012832;28;20472;-84
2021/01/23 07:38:38;;;;;;;3.40;3.10;;;3.40;99.90;;;;;;5014185;28;20542;-85
2021/01/23 07:41:05;;;;;;;4.00;3.60;;;3.40;99.90;;;;;;5014035;28;20468;-85
2021/01/23 07:43:31;;;;;;;3.63;3.40;;;3.40;99.90;;;;;;5010743;28;20482;-84
2021/01/23 07:45:58;;;;;;;3.53;3.20;;;3.40;99.90;;;;;;5013167;28;20996;-85
2021/01/23 07:48:25;;;;;;;4.75;3.42;;;3.40;99.90;;;;;;5013189;28;20193;-85
2021/01/23 07:50:52;;;;;;;5.20;4.60;;;3.50;99.90;;;;;;5013317;28;20200;-85
2021/01/23 07:53:19;;;;;;;4.33;3.70;;;3.50;99.90;;;;;;5013142;28;20782;-84
2021/01/23 07:55:46;;;;;;;5.87;3.90;;;3.50;99.90;;;;;;5013280;28;21063;-85
2021/01/23 07:58:13;;;;;;;6.73;3.97;;;3.60;99.90;;;;;;5013239;28;20456;-86
2021/01/23 08:00:39;;;;;;;4.70;3.50;;;3.70;99.90;;;;;;5014166;28;20452;-86
2021/01/23 08:03:07;;;;;;;4.03;3.67;;;3.80;99.90;;;;;;5013871;28;20487;-84
2021/01/23 08:05:41;;;;;;;3.97;3.57;;;3.90;99.90;;;;;;5012622;28;20535;-85
2021/01/23 08:08:07;;;;;;;3.40;3.10;;;3.90;99.90;;;;;;5013886;28;20430;-85
2021/01/23 08:10:36;;;;;;;3.83;3.53;;;4.00;99.90;;;;;;5013669;28;20466;-85
2021/01/23 08:13:04;;;;;;;4.60;3.50;;;4.00;99.90;;;;;;5013657;28;20830;-84
2021/01/23 08:15:32;;;;;;;5.03;3.80;;;4.10;99.90;;;;;;5013637;28;20473;-85
2021/01/23 08:17:59;;;;;;;7.30;4.20;;;4.10;99.90;;;;;;5013642;28;20500;-84
2021/01/23 08:20:35;;;;;;;7.73;4.43;;;4.10;99.90;;;;;;5013659;28;20516;-85
2021/01/23 08:23:06;;;;;;;4.60;4.00;;;4.10;99.90;;;;;;5005114;28;20560;-86
2021/01/23 08:25:34;;;;;;;4.67;4.17;;;4.20;99.90;;;;;;5013686;28;20478;-85
2021/01/23 08:28:00;;;;;;;8.80;5.27;;;4.20;99.90;;;;;;5013773;28;20793;-85
2021/01/23 08:30:27;;;;;;;5.67;3.50;;;4.20;99.90;;;;;;5013366;28;20457;-85
2021/01/23 08:32:54;;;;;;;4.17;3.70;;;4.20;99.90;;;;;;5012904;28;20437;-85
2021/01/23 08:35:21;;;;;;;4.73;4.17;;;4.20;99.90;;;;;;5010009;28;20464;-85
2021/01/23 08:37:48;;;;;;;6.03;4.10;;;4.30;99.90;;;;;;5012911;28;20445;-86
2021/01/23 08:40:18;;;;;;;3.97;3.47;;;4.30;99.90;;;;;;5013321;28;20827;-86
2021/01/23 08:42:44;;;;;;;4.77;4.30;;;4.30;99.90;;;;;;5013907;28;20440;-86
2021/01/23 08:45:12;;;;;;;5.50;3.90;;;4.40;99.90;;;;;;5014547;28;20469;-86
2021/01/23 08:47:38;;;;;;;4.50;4.10;;;4.60;99.90;;;;;;5011984;28;20441;-84
2021/01/23 08:50:05;;;;;;;4.70;4.30;;;4.60;99.90;;;;;;5009641;28;20457;-85
2021/01/23 08:52:32;;;;;;;5.50;4.70;;;4.80;99.90;;;;;;5011929;28;20452;-86
2021/01/23 08:54:59;;;;;;;4.20;3.90;;;5.00;99.90;;;;;;5011850;28;20463;-86
2021/01/23 08:57:25;;;;;;;6.50;3.63;;;5.10;99.90;;;;;;5011774;28;20461;-85
2021/01/23 08:59:51;;;;;;;5.40;4.73;;;5.20;99.90;;;;;;5011848;28;20435;-85
2021/01/23 09:02:17;;;;;;;4.30;3.90;;;5.30;99.90;;;;;;5011664;28;20449;-85
2021/01/23 09:04:43;;;;;;;4.90;4.37;;;5.30;99.90;;;;;;5011511;28;20481;-85
2021/01/23 09:07:10;;;;;;;7.90;4.10;;;5.30;99.90;;;;;;5011766;28;20985;-85
2021/01/23 09:09:36;;;;;;;4.20;3.70;;;5.40;99.90;;;;;;5011907;28;20453;-85
2021/01/23 09:12:04;;;;;;;5.47;4.10;;;5.40;99.90;;;;;;5011857;28;20463;-85
2021/01/23 09:14:31;;;;;;;6.67;4.60;;;5.50;99.90;;;;;;5011606;28;20458;-85
2021/01/23 09:16:57;;;;;;;5.13;4.00;;;5.50;99.90;;;;;;5011827;28;20454;-85
2021/01/23 09:19:23;;;;;;;4.33;3.97;;;5.60;99.90;;;;;;5008960;28;20869;-86
2021/01/23 09:21:50;;;;;;;4.50;4.17;;;5.80;99.90;;;;;;5011185;28;20454;-85
2021/01/23 09:24:17;;;;;;;4.20;3.67;;;5.90;99.90;;;;;;5011238;28;20512;-86
2021/01/23 09:26:53;;;;;;;5.00;4.60;;;5.80;99.90;;;;;;5031377;23;20558;-86
2021/01/23 09:29:20;;;;;;;5.67;4.30;;;6.00;99.90;;;;;;5025664;28;20456;-85
2021/01/23 09:31:47;;;;;;;4.47;4.03;;;6.10;99.90;;;;;;5031125;28;20965;-86
2021/01/23 09:34:14;;;;;;;3.60;3.30;;;6.10;99.90;;;;;;5031207;28;20969;-86
2021/01/23 09:36:41;;;;;;;5.80;4.23;;;6.30;99.90;;;;;;5031281;28;20480;-86
2021/01/23 09:39:07;;;;;;;4.53;4.10;;;6.40;99.90;;;;;;5031197;28;20444;-85
2021/01/23 09:41:33;;;;;;;3.87;3.50;;;6.40;99.90;;;;;;5032034;28;20445;-85
2021/01/23 09:44:00;;;;;;;7.33;4.90;;;6.40;99.90;;;;;;5030944;28;20634;-86
2021/01/23 09:46:27;;;;;;;4.20;3.80;;;6.50;99.90;;;;;;5031612;28;20469;-86
2021/01/23 09:48:56;;;;;;;4.10;3.70;;;6.40;99.90;;;;;;5031240;28;20472;-91
2021/01/23 09:51:22;;;;;;;5.13;3.90;;;6.40;99.90;;;;;;5031780;28;20450;-82
2021/01/23 09:53:49;;;;;;;4.93;3.80;;;6.40;99.90;;;;;;5031833;28;20441;-80
2021/01/23 09:56:15;;;;;;;10.87;3.80;;;6.60;99.90;;;;;;5031003;28;20481;-81
2021/01/23 09:58:41;;;;;;;3.47;3.17;;;6.70;99.90;;;;;;5030675;28;20449;-87
2021/01/23 10:01:07;;;;;;;4.83;4.00;;;6.70;99.90;;;;;;5031791;28;20429;-86
2021/01/23 10:03:34;;;;;;;4.00;3.30;;;6.80;99.90;;;;;;5031941;28;20484;-86
2021/01/23 10:06:00;;;;;;;3.50;3.20;;;7.30;99.90;;;;;;5030959;28;20480;-86
2021/01/23 10:08:27;;;;;;;4.33;3.20;;;7.60;99.90;;;;;;5031825;28;20453;-86
2021/01/23 10:10:53;;;;;;;4.87;3.10;;;7.80;99.90;;;;;;5031638;28;20808;-85
2021/01/23 10:13:19;;;;;;;3.40;3.10;;;8.30;99.90;;;;;;5031178;28;20453;-87
2021/01/23 10:15:45;;;;;;;7.53;2.93;;;8.60;99.90;;;;;;5031399;28;20508;-85
2021/01/23 10:18:11;;;;;;;3.70;3.20;;;8.80;99.90;;;;;;5031686;28;20518;-86
2021/01/23 10:20:39;;;;;;;3.40;3.10;;;8.70;99.90;;;;;;5031988;28;20977;-87
2021/01/23 10:23:05;;;;;;;3.53;2.43;;;8.60;99.90;;;;;;5031057;28;20965;-87
2021/01/23 10:25:31;;;;;;;4.00;2.50;;;9.00;99.90;;;;;;5030929;28;20483;-87
2021/01/23 10:27:57;;;;;;;2.87;2.67;;;8.90;99.90;;;;;;5031197;28;20548;-87
2021/01/23 10:30:24;;;;;;;3.10;2.80;;;8.90;99.90;;;;;;5031153;28;20453;-87
2021/01/23 10:32:50;;;;;;;2.50;2.30;;;9.10;99.90;;;;;;5030882;28;20950;-86
2021/01/23 10:35:19;;;;;;;2.40;2.20;;;9.20;99.90;;;;;;5031993;28;20607;-85
2021/01/23 10:37:46;;;;;;;3.30;2.83;;;9.20;99.90;;;;;;5031846;28;20506;-86
2021/01/23 10:40:13;;;;;;;3.50;2.77;;;8.90;99.80;;;;;;5030726;28;20941;-87
2021/01/23 10:42:39;;;;;;;3.10;2.80;;;8.30;99.90;;;;;;5031068;28;20954;-87
2021/01/23 10:45:07;;;;;;;3.10;2.03;;;8.20;99.90;;;;;;5030746;28;20480;-88
2021/01/23 10:47:35;;;;;;;3.93;3.07;;;8.00;99.90;;;;;;5030680;28;20863;-87
2021/01/23 10:50:01;;;;;;;2.83;2.30;;;8.10;99.90;;;;;;5031099;28;20826;-85
2021/01/23 10:52:27;;;;;;;3.80;3.30;;;8.00;99.90;;;;;;5031251;28;20457;-85
2021/01/23 10:54:54;;;;;;;3.10;2.80;;;7.80;99.90;;;;;;5030593;28;20441;-86
2021/01/23 10:57:20;;;;;;;3.97;2.90;;;7.80;99.90;;;;;;5032537;28;20446;-89
2021/01/23 10:59:47;;;;;;;3.93;2.83;;;8.00;99.90;;;;;;5048128;28;20437;-89
2021/01/23 11:02:13;;;;;;;3.20;2.83;;;8.20;99.90;;;;;;5040049;28;20921;-89
2021/01/23 11:04:39;;;;;;;3.13;2.60;;;8.50;99.90;;;;;;5034306;28;20476;-90
2021/01/23 11:07:05;;;;;;;4.47;2.93;;;8.80;99.90;;;;;;5034981;28;20507;-89
2021/01/23 11:09:31;;;;;;;3.30;2.80;;;8.90;99.90;;;;;;5032731;28;20464;-88
2021/01/23 11:11:59;;;;;;;2.70;2.50;;;9.40;99.90;;;;;;5034666;28;20441;-89
2021/01/23 11:14:25;;;;;;;3.17;2.63;;;10.10;99.90;;;;;;5034122;28;20502;-89
2021/01/23 11:16:51;;;;;;;3.47;2.57;;;10.20;98.30;;;;;;5034422;28;20984;-91
2021/01/23 11:19:24;;;;;;;3.00;2.73;;;10.90;97.90;;;;;;5038147;28;20449;-94
2021/01/23 11:21:51;;;;;;;4.63;2.70;;;11.50;96.80;;;;;;5028476;28;20491;-93
2021/01/23 11:24:19;;;;;;;2.97;2.67;;;11.20;95.20;;;;;;5033625;28;20477;-86
2021/01/23 11:26:45;;;;;;;2.53;2.33;;;11.10;95.60;;;;;;5034201;28;20476;-86
2021/01/23 11:29:13;;;;;;;4.70;2.93;;;11.00;95.40;;;;;;5033872;28;20449;-87
2021/01/23 11:31:39;;;;;;;5.33;2.53;;;11.20;94.90;;;;;;5033944;28;20452;-87
2021/01/23 11:34:05;;;;;;;2.53;2.33;;;10.80;95.20;;;;;;5034290;28;20437;-87
2021/01/23 11:36:31;;;;;;;2.67;2.47;;;12.10;95.50;;;;;;5031443;28;20528;-87
2021/01/23 11:38:59;;;;;;;2.80;2.10;;;13.20;93.20;;;;;;5033407;28;20507;-87
2021/01/23 11:41:25;;;;;;;3.50;2.30;;;13.50;91.80;;;;;;5033246;28;20440;-87
2021/01/23 11:43:52;;;;;;;4.93;2.50;;;13.70;90.90;;;;;;5033789;28;20473;-87
2021/01/23 11:46:19;;;;;;;3.07;2.87;;;14.70;90.20;;;;;;5033401;28;20879;-87
2021/01/23 11:48:45;;;;;;;3.70;3.10;;;15.40;85.70;;;;;;5033731;28;20445;-87
2021/01/23 11:51:11;;;;;;;2.43;2.23;;;15.10;83.10;;;;;;5033186;28;20453;-86
2021/01/23 11:53:37;;;;;;;2.53;2.33;;;14.70;83.50;;;;;;5033751;28;20447;-87
2021/01/23 11:56:04;;;;;;;2.80;2.60;;;14.40;84.20;;;;;;5033489;28;20989;-87
2021/01/23 11:58:30;;;;;;;4.13;2.37;;;13.80;86.60;;;;;;5033708;28;20440;-87
2021/01/23 12:00:56;;;;;;;2.80;2.43;;;12.60;87.90;;;;;;5033229;28;20479;-85
2021/01/23 12:03:23;;;;;;;2.63;2.33;;;12.50;90.30;;;;;;5033424;28;20477;-86
2021/01/23 12:05:50;;;;;;;3.00;2.70;;;12.60;90.50;;;;;;5033380;28;20459;-87
2021/01/23 12:08:16;;;;;;;3.00;2.33;;;12.40;90.20;;;;;;5033648;28;20819;-87
2021/01/23 12:10:43;;;;;;;3.10;2.80;;;12.30;90.30;;;;;;5033551;28;20456;-86
2021/01/23 12:13:09;;;;;;;2.50;2.10;;;12.80;90.80;;;;;;5032724;28;20480;-87
2021/01/23 12:15:36;;;;;;;2.63;2.30;;;12.80;90.20;;;;;;5033107;28;21003;-87
2021/01/23 12:18:02;;;;;;;4.50;2.60;;;12.00;90.40;;;;;;5033460;28;20495;-87
2021/01/23 12:20:30;;;;;;;3.00;2.70;;;11.80;91.30;;;;;;5033577;28;20461;-86
2021/01/23 12:22:56;;;;;;;3.23;2.93;;;10.70;92.00;;;;;;5033393;28;20453;-87
2021/01/23 12:25:23;;;;;;;3.87;2.10;;;10.90;93.00;;;;;;5033271;28;20586;-87
2021/01/23 12:27:49;;;;;;;1.90;1.73;;;10.80;92.70;;;;;;5033442;28;20515;-87
2021/01/23 12:30:16;;;;;;;3.20;2.00;;;10.80;92.90;;;;;;5032996;28;20449;-87
2021/01/23 12:32:42;;;;;;;2.00;1.80;;;10.30;92.60;;;;;;5033176;28;20452;-87
2021/01/23 12:35:10;;;;;;;3.30;2.50;;;10.20;93.40;;;;;;5033164;28;20469;-87
2021/01/23 12:37:39;;;;;;;4.30;2.40;;;10.00;93.70;;;;;;5033168;28;20449;-87
2021/01/23 12:40:07;;;;;;;2.20;1.80;;;10.10;94.30;;;;;;5033197;28;20504;-87
2021/01/23 12:42:33;;;;;;;4.23;2.60;;;9.60;94.50;;;;;;5032855;28;20941;-87
2021/01/23 12:44:59;;;;;;;3.60;2.20;;;9.60;95.10;;;;;;5033036;28;20492;-87
2021/01/23 12:47:26;;;;;;;3.17;2.03;;;9.30;95.40;;;;;;5032602;28;20519;-86
2021/01/23 12:49:52;;;;;;;1.90;1.70;;;9.20;95.70;;;;;;5032724;28;20448;-86
2021/01/23 12:52:18;;;;;;;3.30;1.70;;;8.90;95.40;;;;;;5032490;28;20949;-86
2021/01/23 12:54:45;;;;;;;3.30;2.67;;;8.90;96.10;;;;;;5032872;28;20508;-87
2021/01/23 12:57:11;;;;;;;3.93;2.27;;;9.00;96.10;;;;;;5032570;28;20964;-87
2021/01/23 12:59:38;;;;;;;2.70;1.90;;;9.10;96.00;;;;;;5032595;28;20456;-87
2021/01/23 13:02:04;;;;;;;3.13;2.00;;;9.30;95.90;;;;;;5012728;28;20855;-87